createdAt,value
2023-05-07T00:00:09.416Z,44.37
2023-05-07T00:02:38.261Z,44.78
2023-05-07T00:05:06.147Z,43.83
2023-05-07T00:07:33.271Z,44.02
2023-05-07T00:10:00.210Z,43.86
2023-05-07T00:12:27.189Z,43.16
2023-05-07T00:14:54.192Z,45.06
2023-05-07T00:17:21.184Z,44.88
2023-05-07T00:19:48.602Z,44.69
2023-05-07T00:22:15.603Z,44.36
2023-05-07T00:24:42.838Z,44.08
2023-05-07T00:27:09.868Z,44.10
2023-05-07T00:29:37.613Z,45.13
2023-05-07T00:32:04.939Z,44.86
2023-05-07T00:34:32.162Z,44.32
2023-05-07T00:36:59.140Z,44.39
2023-05-07T00:39:26.295Z,44.10
2023-05-07T00:41:53.431Z,44.72
2023-05-07T00:44:20.447Z,44.78
2023-05-07T00:46:50.765Z,45.00
2023-05-07T00:49:19.217Z,44.58
2023-05-07T00:51:46.770Z,45.29
2023-05-07T00:54:14.956Z,44.61
2023-05-07T00:56:42.262Z,45.24
2023-05-07T00:59:09.436Z,45.17
2023-05-07T01:01:37.824Z,44.35
2023-05-07T01:04:04.828Z,44.77
2023-05-07T01:06:34.041Z,44.67
2023-05-07T01:09:02.806Z,45.82
2023-05-07T01:11:29.731Z,44.63
2023-05-07T01:13:59.599Z,45.22
2023-05-07T01:16:27.791Z,45.44
2023-05-07T01:18:54.780Z,45.27
2023-05-07T01:21:27.500Z,44.67
2023-05-07T01:23:58.630Z,45.74
2023-05-07T01:26:26.193Z,44.74
2023-05-07T01:28:53.264Z,45.32
2023-05-07T01:31:21.449Z,44.67
2023-05-07T01:33:50.947Z,45.18
2023-05-07T01:36:19.459Z,45.40
2023-05-07T01:38:47.042Z,45.05
2023-05-07T01:41:14.154Z,46.04
2023-05-07T01:43:43.383Z,46.05
2023-05-07T01:46:11.582Z,45.68
2023-05-07T01:48:39.459Z,45.78
2023-05-07T01:51:07.344Z,46.32
2023-05-07T01:53:41.488Z,45.96
2023-05-07T01:56:08.831Z,45.30
2023-05-07T01:58:38.371Z,45.41
2023-05-07T02:01:05.360Z,45.56
2023-05-07T02:03:32.749Z,47.08
2023-05-07T02:06:08.150Z,45.54
2023-05-07T02:08:38.196Z,45.05
2023-05-07T02:11:05.276Z,46.88
2023-05-07T02:13:35.472Z,45.83
2023-05-07T02:16:03.500Z,46.27
2023-05-07T02:18:30.694Z,47.44
2023-05-07T02:20:57.654Z,46.21
2023-05-07T02:23:24.664Z,45.86
2023-05-07T02:25:52.370Z,46.45
2023-05-07T02:28:19.477Z,47.13
2023-05-07T02:30:51.600Z,46.47
2023-05-07T02:33:19.012Z,47.53
2023-05-07T02:35:46.266Z,47.34
2023-05-07T02:38:15.342Z,47.08
2023-05-07T02:40:42.534Z,47.64
2023-05-07T02:43:09.975Z,47.45
2023-05-07T02:45:38.505Z,46.79
2023-05-07T02:48:07.432Z,47.38
2023-05-07T02:50:34.556Z,47.65
2023-05-07T02:53:01.682Z,46.62
2023-05-07T02:55:29.078Z,47.06
2023-05-07T02:57:56.103Z,47.03
2023-05-07T03:00:23.755Z,47.72
2023-05-07T03:03:03.438Z,47.94
2023-05-07T03:05:30.391Z,47.17
2023-05-07T03:07:57.352Z,48.17
2023-05-07T03:10:24.509Z,47.95
2023-05-07T03:12:51.750Z,46.65
2023-05-07T03:15:19.062Z,46.65
2023-05-07T03:17:46.079Z,46.53
2023-05-07T03:20:14.256Z,47.39
2023-05-07T03:22:42.238Z,47.27
2023-05-07T03:25:10.349Z,46.53
2023-05-07T03:27:37.512Z,47.78
2023-05-07T03:30:05.557Z,47.39
2023-05-07T03:32:32.643Z,46.83
2023-05-07T03:34:59.712Z,47.92
2023-05-07T03:37:26.933Z,47.18
2023-05-07T03:39:54.341Z,47.20
2023-05-07T03:42:21.542Z,47.76
2023-05-07T03:44:51.379Z,48.40
2023-05-07T03:47:18.816Z,48.28
2023-05-07T03:49:47.075Z,47.42
2023-05-07T03:52:15.717Z,47.39
2023-05-07T03:54:42.695Z,47.53
2023-05-07T03:57:11.905Z,48.31
2023-05-07T03:59:39.064Z,48.64
2023-05-07T04:02:08.434Z,48.42
2023-05-07T04:04:35.454Z,47.92
2023-05-07T04:07:02.452Z,48.53
2023-05-07T04:09:30.766Z,48.97
2023-05-07T04:11:58.352Z,48.21
2023-05-07T04:14:25.496Z,48.15
2023-05-07T04:16:53.138Z,49.17
2023-05-07T04:19:20.308Z,47.89
2023-05-07T04:21:50.572Z,48.16
2023-05-07T04:24:17.599Z,48.45
2023-05-07T04:26:44.975Z,48.99
2023-05-07T04:29:12.481Z,48.61
2023-05-07T04:31:39.560Z,48.05
2023-05-07T04:34:06.539Z,49.58
2023-05-07T04:36:34.728Z,48.48
2023-05-07T04:39:05.891Z,48.08
2023-05-07T04:41:34.151Z,48.95
2023-05-07T04:44:01.535Z,48.80
2023-05-07T04:46:31.925Z,50.84
2023-05-07T04:48:59.074Z,49.33
2023-05-07T04:51:26.523Z,49.46
2023-05-07T04:53:53.755Z,49.55
2023-05-07T04:56:21.532Z,49.52
2023-05-07T04:58:48.822Z,48.52
2023-05-07T05:01:18.835Z,49.81
2023-05-07T05:03:45.867Z,49.70
2023-05-07T05:06:12.923Z,49.55
2023-05-07T05:08:39.891Z,49.35
2023-05-07T05:11:06.966Z,50.31
2023-05-07T05:13:35.913Z,50.29
2023-05-07T05:16:09.923Z,50.93
2023-05-07T05:18:37.130Z,49.93
2023-05-07T05:21:04.283Z,50.77
2023-05-07T05:23:32.195Z,49.57
2023-05-07T05:25:59.964Z,49.82
2023-05-07T05:28:30.029Z,50.79
2023-05-07T05:30:57.566Z,50.63
2023-05-07T05:33:26.611Z,50.46
2023-05-07T05:35:55.540Z,50.30
2023-05-07T05:38:33.408Z,50.88
2023-05-07T05:41:00.972Z,50.39
2023-05-07T05:43:29.969Z,52.31
2023-05-07T05:45:58.018Z,50.64
2023-05-07T05:48:25.079Z,51.96
2023-05-07T05:50:52.469Z,51.60
2023-05-07T05:53:19.770Z,51.57
2023-05-07T05:55:47.156Z,51.73
2023-05-07T05:58:14.182Z,51.60
2023-05-07T06:00:47.180Z,52.28
2023-05-07T06:03:14.650Z,52.05
2023-05-07T06:05:42.835Z,52.00
2023-05-07T06:08:10.851Z,51.08
2023-05-07T06:10:38.681Z,50.90
2023-05-07T06:13:08.662Z,52.11
2023-05-07T06:15:37.920Z,51.82
2023-05-07T06:18:10.028Z,51.51
2023-05-07T06:20:37.284Z,51.07
2023-05-07T06:23:07.196Z,52.34
2023-05-07T06:25:35.287Z,50.98
2023-05-07T06:28:07.093Z,52.64
2023-05-07T06:30:39.660Z,53.09
2023-05-07T06:33:10.870Z,51.46
2023-05-07T06:35:37.993Z,53.04
2023-05-07T06:38:05.056Z,52.74
2023-05-07T06:40:32.740Z,52.58
2023-05-07T06:43:00.969Z,52.14
2023-05-07T06:45:41.606Z,53.14
2023-05-07T06:48:10.665Z,53.91
2023-05-07T06:50:47.295Z,51.97
2023-05-07T06:53:14.416Z,51.96
2023-05-07T06:55:42.612Z,52.45
2023-05-07T06:58:10.430Z,52.50
2023-05-07T07:00:38.061Z,52.77
2023-05-07T07:03:05.951Z,52.17
2023-05-07T07:05:33.566Z,52.79
2023-05-07T07:08:03.038Z,52.62
2023-05-07T07:10:30.043Z,52.06
2023-05-07T07:12:57.726Z,51.78
2023-05-07T07:15:26.035Z,52.19
2023-05-07T07:17:54.370Z,51.75
2023-05-07T07:20:23.095Z,51.71
2023-05-07T07:22:50.106Z,51.12
2023-05-07T07:25:18.039Z,51.76
2023-05-07T07:27:45.394Z,51.46
2023-05-07T07:30:14.195Z,52.10
2023-05-07T07:32:44.162Z,51.81
2023-05-07T07:35:11.301Z,52.51
2023-05-07T07:37:39.519Z,51.91
2023-05-07T07:40:07.704Z,51.66
2023-05-07T07:42:35.330Z,51.68
2023-05-07T07:45:03.687Z,51.27
2023-05-07T07:47:34.224Z,51.46
2023-05-07T07:50:01.285Z,51.56
2023-05-07T07:52:29.168Z,51.08
2023-05-07T07:54:56.271Z,51.47
2023-05-07T07:57:23.597Z,51.63
2023-05-07T07:59:51.307Z,51.73
2023-05-07T08:02:19.211Z,51.70
2023-05-07T08:04:47.067Z,51.65
2023-05-07T08:07:14.571Z,51.27
2023-05-07T08:09:44.056Z,51.54
2023-05-07T08:12:11.834Z,51.43
2023-05-07T08:14:40.097Z,51.55
2023-05-07T08:17:10.784Z,51.24
2023-05-07T08:19:38.491Z,50.89
2023-05-07T08:22:07.946Z,51.13
2023-05-07T08:24:35.792Z,51.08
2023-05-07T08:27:14.812Z,50.77
2023-05-07T08:29:48.295Z,51.11
2023-05-07T08:32:16.627Z,50.91
2023-05-07T08:34:43.931Z,50.91
2023-05-07T08:37:11.232Z,50.96
2023-05-07T08:39:38.223Z,50.91
2023-05-07T08:42:12.261Z,50.72
2023-05-07T08:44:40.699Z,50.53
2023-05-07T08:47:08.524Z,50.39
2023-05-07T08:49:37.655Z,50.45
2023-05-07T08:52:09.320Z,50.38
2023-05-07T08:54:39.017Z,50.31
2023-05-07T08:57:07.681Z,49.62
2023-05-07T08:59:36.758Z,49.40
2023-05-07T09:02:10.156Z,49.32
2023-05-07T09:04:37.400Z,49.44
2023-05-07T09:07:06.323Z,49.43
2023-05-07T09:09:36.718Z,48.80
2023-05-07T09:12:05.485Z,49.54
2023-05-07T09:14:34.513Z,49.60
2023-05-07T09:17:02.923Z,49.36
2023-05-07T09:19:31.411Z,49.04
2023-05-07T09:22:04.464Z,48.96
2023-05-07T09:24:40.103Z,49.26
2023-05-07T09:27:14.196Z,48.90
2023-05-07T09:29:42.674Z,47.94
2023-05-07T09:32:11.561Z,47.94
2023-05-07T09:34:39.077Z,48.13
2023-05-07T09:37:08.444Z,48.53
2023-05-07T09:39:48.167Z,48.45
2023-05-07T09:42:23.607Z,48.23
2023-05-07T09:44:52.174Z,47.60
2023-05-07T09:47:25.776Z,47.75
2023-05-07T09:50:00.861Z,47.53
2023-05-07T09:52:34.193Z,47.38
2023-05-07T09:55:04.616Z,47.68
2023-05-07T09:57:34.806Z,47.71
2023-05-07T10:00:06.560Z,47.69
2023-05-07T10:02:52.906Z,47.57
2023-05-07T10:05:27.036Z,47.80
2023-05-07T10:07:58.256Z,47.73
2023-05-07T10:10:27.023Z,47.68
2023-05-07T10:12:55.530Z,47.63
2023-05-07T10:15:30.293Z,47.18
2023-05-07T10:17:59.015Z,46.82
2023-05-07T10:20:28.040Z,47.52
2023-05-07T10:22:58.925Z,47.20
2023-05-07T10:25:34.148Z,46.65
2023-05-07T10:28:11.831Z,47.32
2023-05-07T10:31:17.368Z,47.92
2023-05-07T10:33:49.749Z,47.65
2023-05-07T10:36:19.654Z,47.20
2023-05-07T10:38:47.560Z,47.80
2023-05-07T10:41:16.235Z,46.33
2023-05-07T10:43:46.269Z,47.79
2023-05-07T10:46:24.347Z,47.75
2023-05-07T10:49:09.178Z,47.73
2023-05-07T10:51:47.940Z,47.57
2023-05-07T10:54:23.125Z,47.96
2023-05-07T10:57:34.702Z,47.61
2023-05-07T11:00:38.572Z,46.52
2023-05-07T11:03:09.186Z,45.92
2023-05-07T11:06:10.004Z,44.75
2023-05-07T11:08:53.488Z,42.06
2023-05-07T11:11:51.979Z,37.08
2023-05-07T11:14:43.402Z,41.32
2023-05-07T11:17:14.334Z,40.52
2023-05-07T11:19:56.748Z,36.22
2023-05-07T11:22:32.489Z,39.22
2023-05-07T11:25:28.972Z,39.38
2023-05-07T11:28:22.153Z,36.29
2023-05-07T11:31:02.690Z,36.23
2023-05-07T11:33:31.769Z,37.17
2023-05-07T11:36:03.614Z,36.98
2023-05-07T11:38:37.832Z,36.66
2023-05-07T11:41:06.162Z,35.38
2023-05-07T11:43:34.418Z,34.50
2023-05-07T11:46:11.084Z,30.60
2023-05-07T11:48:39.084Z,34.58
2023-05-07T11:51:09.994Z,34.12
2023-05-07T11:53:46.731Z,32.98
2023-05-07T11:56:18.607Z,34.21
2023-05-07T11:58:47.792Z,34.10
2023-05-07T12:01:16.628Z,33.21
2023-05-07T12:03:47.058Z,33.56
2023-05-07T12:06:17.242Z,31.71
2023-05-07T12:08:47.938Z,32.19
2023-05-07T12:11:23.068Z,32.57
2023-05-07T12:13:50.244Z,32.22
2023-05-07T12:16:17.526Z,32.72
2023-05-07T12:18:45.823Z,31.26
2023-05-07T12:21:13.491Z,31.97
2023-05-07T12:23:41.269Z,30.71
2023-05-07T12:26:09.111Z,30.86
2023-05-07T12:28:40.190Z,29.97
2023-05-07T12:31:08.737Z,31.15
2023-05-07T12:33:37.046Z,30.43
2023-05-07T12:36:08.418Z,30.62
2023-05-07T12:38:42.115Z,29.68
2023-05-07T12:41:11.549Z,30.01
2023-05-07T12:43:39.271Z,30.06
2023-05-07T12:46:08.899Z,30.43
2023-05-07T12:48:39.767Z,30.38
2023-05-07T12:51:08.750Z,28.91
2023-05-07T12:53:43.112Z,27.95
2023-05-07T12:56:10.558Z,28.74
2023-05-07T12:58:37.794Z,28.04
2023-05-07T13:01:07.897Z,26.74
2023-05-07T13:03:37.339Z,26.42
2023-05-07T13:06:16.069Z,26.22
2023-05-07T13:08:46.255Z,27.13
2023-05-07T13:11:14.343Z,26.84
2023-05-07T13:13:42.438Z,27.33
2023-05-07T13:16:12.302Z,27.35
2023-05-07T13:18:41.707Z,27.76
2023-05-07T13:21:09.045Z,28.27
2023-05-07T13:23:36.360Z,28.51
2023-05-07T13:26:08.504Z,28.31
2023-05-07T13:28:36.002Z,28.94
2023-05-07T13:31:04.006Z,28.87
2023-05-07T13:33:32.034Z,29.59
2023-05-07T13:36:01.443Z,30.18
2023-05-07T13:38:28.491Z,30.02
2023-05-07T13:40:55.556Z,30.08
2023-05-07T13:43:22.509Z,30.32
2023-05-07T13:45:49.498Z,31.06
2023-05-07T13:48:16.529Z,30.83
2023-05-07T13:50:43.501Z,31.18
2023-05-07T13:53:10.654Z,31.13
2023-05-07T13:55:37.628Z,31.08
2023-05-07T13:58:07.039Z,31.04
2023-05-07T14:00:34.476Z,31.19
2023-05-07T14:03:02.084Z,31.33
2023-05-07T14:05:29.260Z,31.59
2023-05-07T14:07:58.091Z,31.44
2023-05-07T14:10:25.462Z,31.51
2023-05-07T14:12:53.643Z,31.69
2023-05-07T14:15:21.700Z,33.60
2023-05-07T14:17:48.634Z,34.25
2023-05-07T14:20:15.710Z,36.94
2023-05-07T14:22:42.763Z,39.52
2023-05-07T14:25:13.890Z,41.16
2023-05-07T14:27:41.507Z,42.67
2023-05-07T14:30:09.372Z,44.65
2023-05-07T14:32:36.849Z,45.73
2023-05-07T14:35:04.087Z,47.14
2023-05-07T14:37:31.755Z,47.02
2023-05-07T14:40:01.106Z,47.17
2023-05-07T14:42:28.114Z,49.66
2023-05-07T14:44:55.180Z,49.45
2023-05-07T14:47:22.161Z,51.48
2023-05-07T14:49:49.120Z,50.71
2023-05-07T14:52:16.286Z,51.57
2023-05-07T14:54:43.261Z,54.54
2023-05-07T14:57:14.162Z,59.15
2023-05-07T14:59:43.767Z,56.43
2023-05-07T15:02:12.805Z,55.06
2023-05-07T15:04:46.469Z,52.28
2023-05-07T15:07:18.365Z,51.90
2023-05-07T15:09:45.970Z,49.63
2023-05-07T15:12:13.992Z,51.22
2023-05-07T15:14:43.313Z,47.97
2023-05-07T15:17:10.287Z,48.47
2023-05-07T15:19:37.656Z,48.17
2023-05-07T15:22:04.825Z,54.41
2023-05-07T15:24:32.225Z,48.77
2023-05-07T15:26:59.332Z,47.56
2023-05-07T15:29:26.352Z,47.91
2023-05-07T15:31:53.418Z,47.89
2023-05-07T15:34:21.905Z,48.44
2023-05-07T15:36:48.935Z,47.69
2023-05-07T15:39:15.989Z,47.95
2023-05-07T15:41:43.125Z,47.83
2023-05-07T15:44:10.844Z,47.03
2023-05-07T15:46:37.828Z,47.70
2023-05-07T15:49:08.340Z,47.08
2023-05-07T15:51:36.471Z,47.06
2023-05-07T15:54:03.682Z,48.76
2023-05-07T15:56:33.651Z,47.56
2023-05-07T15:59:00.736Z,47.80
2023-05-07T16:01:28.112Z,47.83
2023-05-07T16:03:55.396Z,48.16
2023-05-07T16:06:22.776Z,47.81
2023-05-07T16:08:49.917Z,48.06
2023-05-07T16:11:17.022Z,48.57
2023-05-07T16:13:44.045Z,47.44
2023-05-07T16:16:11.038Z,47.46
2023-05-07T16:18:38.091Z,49.03
2023-05-07T16:21:06.570Z,47.55
2023-05-07T16:23:33.557Z,47.87
2023-05-07T16:26:00.536Z,48.27
2023-05-07T16:28:27.488Z,48.39
2023-05-07T16:30:54.448Z,50.30
2023-05-07T16:33:21.418Z,49.97
2023-05-07T16:35:52.858Z,49.20
2023-05-07T16:38:19.923Z,49.58
2023-05-07T16:40:46.890Z,53.88
2023-05-07T16:43:13.875Z,52.86
2023-05-07T16:45:41.113Z,53.21
2023-05-07T16:48:08.410Z,56.24
2023-05-07T16:50:35.924Z,58.59
2023-05-07T16:53:03.015Z,56.27
2023-05-07T16:55:36.208Z,56.88
2023-05-07T16:58:10.954Z,57.17
2023-05-07T17:00:49.869Z,58.42
2023-05-07T17:03:17.723Z,58.11
2023-05-07T17:05:45.239Z,60.95
2023-05-07T17:08:13.635Z,59.78
2023-05-07T17:10:41.400Z,57.22
2023-05-07T17:13:08.509Z,58.25
2023-05-07T17:15:35.601Z,55.67
2023-05-07T17:18:02.670Z,57.70
2023-05-07T17:20:29.642Z,59.96
2023-05-07T17:22:56.720Z,56.56
2023-05-07T17:25:23.775Z,55.51
2023-05-07T17:27:50.910Z,57.47
2023-05-07T17:30:18.421Z,55.27
2023-05-07T17:32:45.425Z,55.89
2023-05-07T17:35:12.348Z,56.72
2023-05-07T17:37:39.354Z,55.49
2023-05-07T17:40:07.611Z,56.53
2023-05-07T17:42:34.564Z,56.13
2023-05-07T17:45:01.531Z,55.24
2023-05-07T17:47:28.797Z,54.96
2023-05-07T17:49:55.998Z,56.75
2023-05-07T17:52:24.027Z,54.74
2023-05-07T17:54:50.972Z,55.15
2023-05-07T17:57:17.904Z,55.54
2023-05-07T17:59:44.865Z,55.26
2023-05-07T18:02:11.915Z,57.64
2023-05-07T18:04:38.894Z,57.58
2023-05-07T18:07:05.919Z,60.92
2023-05-07T18:09:33.534Z,58.42
2023-05-07T18:12:01.009Z,58.35
2023-05-07T18:14:28.210Z,57.63
2023-05-07T18:16:55.416Z,55.37
2023-05-07T18:19:22.438Z,56.06
2023-05-07T18:21:49.652Z,56.16
2023-05-07T18:24:16.639Z,60.21
2023-05-07T18:26:43.562Z,58.43
2023-05-07T18:29:10.784Z,57.88
2023-05-07T18:31:38.215Z,55.74
2023-05-07T18:34:06.436Z,57.07
2023-05-07T18:36:33.579Z,58.04
2023-05-07T18:39:01.309Z,60.20
2023-05-07T18:41:28.430Z,58.55
2023-05-07T18:43:55.752Z,58.02
2023-05-07T18:46:22.741Z,57.48
2023-05-07T18:48:49.748Z,58.44
2023-05-07T18:51:16.686Z,57.76
2023-05-07T18:53:43.603Z,57.05
2023-05-07T18:56:10.586Z,57.21
2023-05-07T18:58:37.793Z,59.79
2023-05-07T19:01:08.582Z,57.32
2023-05-07T19:03:35.992Z,56.66
2023-05-07T19:06:04.186Z,61.64
2023-05-07T19:08:31.171Z,58.14
2023-05-07T19:10:58.637Z,58.06
2023-05-07T19:13:26.049Z,58.69
2023-05-07T19:15:53.938Z,55.98
2023-05-07T19:18:21.145Z,58.05
2023-05-07T19:20:50.236Z,56.06
2023-05-07T19:23:19.147Z,56.42
2023-05-07T19:25:47.449Z,57.42
2023-05-07T19:28:14.413Z,56.07
2023-05-07T19:30:41.382Z,56.26
2023-05-07T19:33:08.506Z,57.80
2023-05-07T19:35:35.665Z,55.58
2023-05-07T19:38:03.463Z,57.62
2023-05-07T19:40:30.447Z,56.92
2023-05-07T19:42:57.414Z,55.03
2023-05-07T19:45:24.344Z,55.99
2023-05-07T19:47:51.376Z,56.56
2023-05-07T19:50:18.681Z,54.93
2023-05-07T19:52:45.790Z,54.77
2023-05-07T19:55:12.957Z,55.42
2023-05-07T19:57:40.362Z,54.98
2023-05-07T20:00:08.220Z,54.96
2023-05-07T20:02:40.104Z,54.50
2023-05-07T20:05:07.642Z,54.72
2023-05-07T20:07:37.614Z,54.36
2023-05-07T20:10:05.132Z,55.66
2023-05-07T20:12:32.104Z,55.67
2023-05-07T20:15:01.495Z,57.14
2023-05-07T20:17:28.573Z,56.30
2023-05-07T20:19:56.107Z,57.30
2023-05-07T20:22:23.753Z,57.02
2023-05-07T20:24:50.787Z,56.86
2023-05-07T20:27:22.084Z,57.21
2023-05-07T20:29:49.409Z,57.14
2023-05-07T20:32:17.106Z,57.98
2023-05-07T20:34:47.500Z,56.29
2023-05-07T20:37:15.671Z,55.50
2023-05-07T20:39:42.900Z,55.71
2023-05-07T20:42:10.140Z,56.91
2023-05-07T20:44:37.106Z,55.87
2023-05-07T20:47:04.375Z,55.91
2023-05-07T20:49:31.653Z,57.81
2023-05-07T20:51:58.678Z,55.93
2023-05-07T20:54:28.016Z,55.36
2023-05-07T20:56:56.849Z,55.17
2023-05-07T20:59:24.136Z,55.63
2023-05-07T21:01:51.466Z,54.75
2023-05-07T21:04:18.514Z,55.32
2023-05-07T21:06:45.530Z,55.11
2023-05-07T21:09:12.503Z,54.89
2023-05-07T21:11:39.575Z,54.71
2023-05-07T21:14:06.505Z,55.01
2023-05-07T21:16:33.487Z,55.00
2023-05-07T21:19:00.752Z,54.93
2023-05-07T21:21:28.067Z,55.33
2023-05-07T21:23:55.280Z,55.02
2023-05-07T21:26:22.738Z,55.22
2023-05-07T21:28:50.453Z,55.21
2023-05-07T21:31:18.142Z,55.67
2023-05-07T21:33:45.416Z,55.19
2023-05-07T21:36:12.523Z,55.12
2023-05-07T21:38:40.360Z,56.75
2023-05-07T21:41:07.529Z,56.41
2023-05-07T21:43:34.501Z,55.58
2023-05-07T21:46:03.646Z,55.94
2023-05-07T21:48:30.699Z,56.67
2023-05-07T21:51:06.263Z,55.86
2023-05-07T21:53:34.936Z,57.96
2023-05-07T21:56:05.187Z,56.93
2023-05-07T21:58:32.513Z,56.34
2023-05-07T22:01:01.304Z,58.63
2023-05-07T22:03:28.377Z,56.61
2023-05-07T22:05:55.675Z,56.45
2023-05-07T22:08:22.698Z,57.39
2023-05-07T22:10:49.682Z,56.60
2023-05-07T22:13:16.781Z,56.25
2023-05-07T22:15:53.704Z,56.33
2023-05-07T22:18:24.612Z,54.15
2023-05-07T22:20:52.156Z,58.45
2023-05-07T22:23:19.126Z,57.29
2023-05-07T22:25:46.106Z,56.11
2023-05-07T22:28:13.218Z,56.50
2023-05-07T22:30:40.432Z,57.46
2023-05-07T22:33:07.453Z,57.25
2023-05-07T22:35:34.586Z,56.89
2023-05-07T22:38:01.690Z,57.68
2023-05-07T22:40:28.629Z,57.37
2023-05-07T22:42:55.588Z,56.53
2023-05-07T22:45:22.524Z,57.84
2023-05-07T22:47:49.496Z,56.83
2023-05-07T22:50:16.575Z,58.81
2023-05-07T22:52:43.502Z,57.03
2023-05-07T22:55:10.420Z,58.92
2023-05-07T22:57:37.433Z,57.54
2023-05-07T23:00:06.167Z,59.98
2023-05-07T23:02:33.576Z,58.13
2023-05-07T23:05:01.614Z,57.35
2023-05-07T23:07:28.759Z,57.17
2023-05-07T23:09:55.698Z,59.43
2023-05-07T23:12:22.628Z,58.30
2023-05-07T23:14:50.204Z,57.91
2023-05-07T23:17:17.247Z,60.06
2023-05-07T23:19:44.358Z,57.92
2023-05-07T23:22:12.187Z,60.07
2023-05-07T23:24:39.371Z,59.12
2023-05-07T23:27:07.225Z,58.72
2023-05-07T23:29:35.152Z,58.32
2023-05-07T23:32:02.300Z,58.71
2023-05-07T23:34:29.288Z,57.67
2023-05-07T23:36:56.227Z,60.25
2023-05-07T23:39:23.167Z,58.24
2023-05-07T23:41:50.214Z,58.00
2023-05-07T23:44:17.448Z,57.80
2023-05-07T23:46:44.893Z,57.65
2023-05-07T23:49:12.020Z,57.57
2023-05-07T23:51:39.018Z,57.09
2023-05-07T23:54:06.667Z,57.26
2023-05-07T23:56:33.746Z,57.20
2023-05-07T23:59:00.879Z,57.19
